Terminal Aerodrome Forecast
Issued by NWS Charleston, WV

Current Version | Previous Version | Graphics & Text | Print | Product List | Glossary On
Versions: 1 2 3 4 5 6 7 8 9 10 11 12 13 14 15 16 17 18 19 20
000
FTUS41 KRLX 242300
TAFPKB
TAF
KPKB 242328Z 2500/2524 35004KT P6SM SKC
     FM250700 00000KT 5SM BR SKC
     FM250800 00000KT 2SM BR SCT001
     FM250900 00000KT 1/4SM FG VV001
     FM251300 00000KT 2SM BR BKN001
     FM251400 VRB03KT P6SM SKC
     FM251500 03004KT P6SM SCT035
     FM251900 11005KT P6SM SCT045
     FM252100 18005KT P6SM SCT050
      AMD NOT SKED=

USA.gov is the U.S. government's official web portal to all federal, state and local government web resources and services.